Sun City, CA (92584)

3:05 PM PDT on September 16, 2014 (GMT -0700)
Sun City MZW | Change Station
CLOSE
Current Station
Personal Weather Station
Location: Menifee, CA
Elevation: 1450 ft
Nearby Weather Stations

Elev 1450 ft 33.70 °N, 117.21 °W | Updated 7 minutes ago

Mostly Cloudy
Mostly Cloudy
78.6 °F
Feels Like 80 °F
N
2.7
Wind Variable Wind from SSE

Today
High -- | Low -- °F
--% Chance of Precip.
Yesterday
High -- | Low -- °F
Precip. -- in
6:32 AM 6:53 PM
Last Quarter, 42% visible
Pressure 29.79 in
Visibility 10.0 miles
Clouds Scattered Clouds 2400 ft
Scattered Clouds 4200 ft
Overcast 8500 ft
Heat Index 80 °F
Dew Point 64 °F
Humidity 62%
Rainfall 0.05 in
Snow Depth 1 in , 0 in , 1 in
UV 2 out of 12
Pollen 5.60 out of 12
Ozone Good
PM2.5 Good
Flu Activity Not available.
METAR KF70 162155Z AUTO 34007G25KT 10SM SCT024 SCT042 OVC085 30/16 A2979 RMK AO1

More Conditions Fewer Conditions

Pressure 29.79 in
Visibility 10.0 miles
Clouds Scattered Clouds 2400 ft
Scattered Clouds 4200 ft
Overcast 8500 ft
Heat Index 80 °F
Dew Point 64 °F
Humidity 62%
Rainfall 0.05 in
Snow Depth 1 in , 0 in , 1 in
UV 2 out of 12
Pollen 5.60 out of 12
Ozone Good
PM2.5 Good
Flu Activity Not available.
METAR KF70 162155Z AUTO 34007G25KT 10SM SCT024 SCT042 OVC085 30/16 A2979 RMK AO1

More Conditions Fewer Conditions

10-Day Weather Forecast

Almanac

Astronomy

Sep. 16, 2014 Rise Set
Actual Time 6:32 AM PDT 6:53 PM PDT
Civil Twilight 6:07 AM PDT 7:18 PM PDT
Nautical Twilight 5:38 AM PDT 7:47 PM PDT
Astronomical Twilight 5:08 AM PDT 8:17 PM PDT
Moon No Moon Rise 2:08 PM PDT
Length of Visible Light 13h 10m
Length of Day
12h 20m
Tomorrow will be 2m 3s shorter.
Last Quarter, 42% of the Moon is Illuminated
Today
Last Quarter
Sep 24
New
Oct 1
First Quarter
Oct 8
Full
Oct 15
Last Quarter

Today's Extremes

State Highs State Lows

Community

WunderPhotos

Upload Photos

1,753,895 photos uploaded!

Nearby

Air Quality

  Air Quality AQ Index Pollutant
Yesterday Moderate
OZONE
Yesterday Good
PM10
Current Good
PM2.5
Current Good
OZONE
Wednesday Moderate
OZONE
Wednesday Good
PM10
Wednesday Good
CO
Wednesday Good
NO2

Snow Depth

Station Depth Elevation
Leavitt Meadows 1 in 7200 ft
Summit Meadow 0 in 9122 ft
CSS Lab 1 in 6900 ft
Rubicon #2 0 in 7500 ft
Adin Mountain 0 in 6200 ft

Earthquake Activity

City Distance Mag. Time & Date
La Quinta, California 44 miles 2.7 8:59 PM PDT
2014-09-15
San Jacinto, California 15 miles 3.0 3:16 PM PDT
2014-09-14
Minimum magnitude displayed is 2.5.

Coastal Water Temperatures

Place Temperature
No Stations Reporting

Nearby Weather Stations